createdAt,value
2019-02-02T00:01:33.760Z,97.05
2019-02-02T00:04:01.348Z,103.50
2019-02-02T00:06:28.683Z,103.22
2019-02-02T00:08:56.900Z,108.32
2019-02-02T00:11:24.538Z,121.95
2019-02-02T00:13:52.691Z,103.42
2019-02-02T00:16:20.098Z,106.27
2019-02-02T00:18:47.809Z,104.05
2019-02-02T00:21:15.170Z,102.75
2019-02-02T00:23:42.629Z,102.55
2019-02-02T00:26:12.331Z,103.78
2019-02-02T00:28:39.721Z,105.43
2019-02-02T00:31:07.451Z,111.45
2019-02-02T00:33:34.841Z,102.60
2019-02-02T00:36:01.963Z,109.83
2019-02-02T00:38:30.858Z,112.32
2019-02-02T00:40:59.510Z,106.22
2019-02-02T00:43:26.882Z,115.82
2019-02-02T00:45:54.453Z,102.60
2019-02-02T00:48:27.631Z,107.85
2019-02-02T00:50:55.300Z,99.52
2019-02-02T00:53:22.652Z,96.08
2019-02-02T00:55:55.649Z,111.20
2019-02-02T00:58:22.722Z,107.63
2019-02-02T01:00:50.099Z,102.85
2019-02-02T01:03:17.166Z,115.82
2019-02-02T01:05:45.241Z,107.10
2019-02-02T01:08:12.459Z,102.72
2019-02-02T01:10:41.382Z,103.00
2019-02-02T01:13:09.500Z,100.78
2019-02-02T01:15:37.264Z,103.60
2019-02-02T01:18:07.050Z,116.65
2019-02-02T01:20:35.151Z,105.63
2019-02-02T01:23:03.602Z,114.22
2019-02-02T01:25:30.668Z,102.05
2019-02-02T01:28:04.780Z,105.72
2019-02-02T01:30:27.199Z,124.05
2019-02-02T01:32:56.111Z,110.95
2019-02-02T01:35:23.190Z,112.37
2019-02-02T01:37:51.587Z,102.87
2019-02-02T01:40:19.259Z,106.75
2019-02-02T01:42:46.839Z,98.37
2019-02-02T01:45:20.093Z,110.65
2019-02-02T01:47:47.614Z,108.47
2019-02-02T01:50:16.589Z,109.00
2019-02-02T01:52:44.342Z,97.62
2019-02-02T01:55:13.050Z,125.02
2019-02-02T01:57:40.711Z,107.87
2019-02-02T02:00:12.399Z,111.60
2019-02-02T02:02:41.857Z,113.37
2019-02-02T02:05:09.258Z,117.03
2019-02-02T02:07:36.668Z,110.22
2019-02-02T02:10:05.663Z,103.40
2019-02-02T02:12:33.154Z,109.75
2019-02-02T02:15:01.409Z,104.00
2019-02-02T02:17:29.255Z,106.50
2019-02-02T02:19:58.150Z,106.85
2019-02-02T02:22:26.627Z,97.65
2019-02-02T02:24:54.406Z,117.90
2019-02-02T02:27:21.498Z,103.70
2019-02-02T02:29:49.003Z,118.85
2019-02-02T02:32:17.375Z,92.75
2019-02-02T02:34:45.958Z,112.15
2019-02-02T02:37:13.003Z,111.15
2019-02-02T02:39:41.879Z,108.78
2019-02-02T02:42:09.039Z,117.80
2019-02-02T02:44:36.407Z,103.58
2019-02-02T02:47:03.459Z,115.12
2019-02-02T02:49:31.007Z,114.35
2019-02-02T02:51:58.670Z,118.50
2019-02-02T02:54:25.754Z,124.82
2019-02-02T02:56:53.966Z,108.83
2019-02-02T02:59:21.014Z,112.03
2019-02-02T03:01:48.071Z,101.55
2019-02-02T03:04:16.203Z,117.05
2019-02-02T03:06:44.578Z,111.35
2019-02-02T03:09:11.843Z,100.50
2019-02-02T03:11:39.306Z,106.97
2019-02-02T03:14:06.355Z,107.65
2019-02-02T03:16:34.178Z,104.80
2019-02-02T03:19:02.707Z,112.55
2019-02-02T03:21:30.124Z,106.78
2019-02-02T03:23:57.224Z,109.75
2019-02-02T03:26:24.343Z,104.87
2019-02-02T03:28:53.863Z,107.55
2019-02-02T03:31:22.245Z,106.12
2019-02-02T03:33:49.575Z,105.40
2019-02-02T03:36:16.923Z,105.17
2019-02-02T03:38:44.081Z,109.52
2019-02-02T03:41:11.161Z,114.72
2019-02-02T03:43:39.429Z,100.20
2019-02-02T03:46:06.481Z,114.17
2019-02-02T03:48:33.864Z,112.85
2019-02-02T03:51:01.010Z,123.58
2019-02-02T03:53:28.364Z,106.07
2019-02-02T03:55:56.249Z,108.45
2019-02-02T03:58:23.695Z,110.63
2019-02-02T04:00:51.346Z,112.05
2019-02-02T04:03:18.804Z,109.65
2019-02-02T04:05:50.092Z,106.83
2019-02-02T04:08:18.047Z,116.10
2019-02-02T04:10:45.783Z,108.97
2019-02-02T04:13:13.239Z,104.40
2019-02-02T04:15:40.410Z,108.00
2019-02-02T04:18:07.487Z,110.75
2019-02-02T04:20:34.708Z,113.08
2019-02-02T04:23:01.855Z,110.60
2019-02-02T04:25:29.036Z,115.00
2019-02-02T04:27:56.471Z,106.52
2019-02-02T04:30:25.104Z,110.97
2019-02-02T04:32:52.189Z,116.45
2019-02-02T04:35:19.242Z,131.25
2019-02-02T04:37:47.310Z,113.52
2019-02-02T04:40:14.494Z,115.10
2019-02-02T04:42:41.554Z,130.63
2019-02-02T04:45:09.752Z,104.50
2019-02-02T04:47:37.046Z,114.47
2019-02-02T04:50:06.011Z,112.52
2019-02-02T04:52:33.878Z,118.05
2019-02-02T04:55:01.287Z,112.85
2019-02-02T04:57:28.693Z,112.22
2019-02-02T04:59:55.758Z,113.30
2019-02-02T05:02:24.214Z,109.65
2019-02-02T05:04:51.270Z,103.67
2019-02-02T05:07:18.318Z,119.67
2019-02-02T05:09:45.379Z,107.78
2019-02-02T05:12:12.759Z,116.97
2019-02-02T05:14:39.822Z,101.58
2019-02-02T05:17:07.233Z,116.60
2019-02-02T05:19:35.997Z,113.00
2019-02-02T05:22:04.780Z,114.50
2019-02-02T05:24:33.001Z,115.62
2019-02-02T05:27:01.228Z,106.03
2019-02-02T05:29:28.282Z,107.70
2019-02-02T05:31:55.332Z,111.85
2019-02-02T05:34:22.428Z,125.27
2019-02-02T05:36:49.569Z,109.67
2019-02-02T05:39:16.635Z,115.88
2019-02-02T05:41:43.679Z,120.87
2019-02-02T05:44:12.974Z,131.55
2019-02-02T05:46:40.450Z,123.62
2019-02-02T05:49:07.518Z,116.08
2019-02-02T05:51:35.870Z,118.62
2019-02-02T05:54:03.050Z,119.02
2019-02-02T05:56:30.122Z,121.97
2019-02-02T05:58:57.519Z,122.20
2019-02-02T06:01:26.078Z,120.47
2019-02-02T06:03:55.347Z,124.90
2019-02-02T06:06:24.863Z,122.53
2019-02-02T06:08:52.523Z,126.07
2019-02-02T06:11:19.866Z,123.18
2019-02-02T06:13:47.242Z,128.12
2019-02-02T06:16:16.421Z,113.85
2019-02-02T06:18:44.509Z,128.75
2019-02-02T06:21:12.254Z,127.82
2019-02-02T06:23:39.613Z,125.05
2019-02-02T06:26:06.705Z,119.02
2019-02-02T06:28:33.763Z,126.02
2019-02-02T06:31:00.878Z,130.15
2019-02-02T06:33:27.954Z,132.40
2019-02-02T06:35:55.405Z,117.03
2019-02-02T06:38:22.451Z,126.72
2019-02-02T06:40:49.657Z,114.17
2019-02-02T06:43:16.741Z,124.87
2019-02-02T06:45:43.805Z,116.47
2019-02-02T06:48:10.933Z,124.60
2019-02-02T06:50:39.778Z,124.72
2019-02-02T06:53:06.995Z,128.57
2019-02-02T06:55:34.042Z,122.95
2019-02-02T06:58:01.264Z,108.35
2019-02-02T07:00:28.386Z,119.40
2019-02-02T07:02:57.190Z,120.47
2019-02-02T07:05:24.264Z,115.30
2019-02-02T07:07:51.731Z,126.75
2019-02-02T07:10:23.984Z,126.78
2019-02-02T07:12:51.161Z,121.02
2019-02-02T07:15:20.545Z,115.72
2019-02-02T07:17:48.266Z,119.67
2019-02-02T07:20:15.925Z,116.37
2019-02-02T07:22:43.126Z,129.65
2019-02-02T07:25:10.433Z,126.05
2019-02-02T07:27:37.785Z,112.30
2019-02-02T07:30:08.092Z,141.45
2019-02-02T07:32:35.804Z,136.70
2019-02-02T07:35:03.839Z,128.50
2019-02-02T07:37:31.355Z,132.15
2019-02-02T07:40:00.277Z,123.22
2019-02-02T07:42:27.875Z,143.65
2019-02-02T07:44:56.073Z,141.95
2019-02-02T07:47:24.128Z,129.55
2019-02-02T07:49:51.183Z,143.80
2019-02-02T07:52:18.751Z,144.70
2019-02-02T07:54:45.948Z,141.12
2019-02-02T07:57:13.136Z,136.03
2019-02-02T07:59:40.212Z,151.70
2019-02-02T08:02:09.063Z,142.98
2019-02-02T08:04:37.234Z,145.15
2019-02-02T08:07:04.426Z,146.82
2019-02-02T08:09:32.586Z,152.75
2019-02-02T08:11:59.646Z,149.00
2019-02-02T08:14:26.686Z,144.15
2019-02-02T08:16:53.729Z,155.93
2019-02-02T08:19:20.978Z,152.47
2019-02-02T08:21:48.030Z,141.82
2019-02-02T08:24:16.017Z,146.15
2019-02-02T08:26:43.406Z,145.28
2019-02-02T08:29:10.779Z,145.22
2019-02-02T08:31:38.726Z,153.30
2019-02-02T08:34:05.934Z,135.55
2019-02-02T08:36:33.134Z,155.27
2019-02-02T08:39:01.568Z,150.10
2019-02-02T08:41:31.678Z,141.43
2019-02-02T08:43:58.730Z,134.50
2019-02-02T08:46:25.792Z,142.10
2019-02-02T08:48:53.282Z,137.97
2019-02-02T08:51:20.666Z,150.35
2019-02-02T08:53:48.042Z,135.35
2019-02-02T08:56:15.130Z,131.47
2019-02-02T08:58:44.011Z,146.10
2019-02-02T09:01:11.066Z,140.40
2019-02-02T09:03:38.308Z,157.10
2019-02-02T09:06:05.354Z,149.70
2019-02-02T09:08:32.494Z,146.18
2019-02-02T09:10:59.879Z,126.75
2019-02-02T09:13:27.546Z,132.27
2019-02-02T09:15:54.902Z,145.90
2019-02-02T09:18:23.194Z,134.07
2019-02-02T09:20:51.556Z,134.78
2019-02-02T09:23:19.337Z,141.35
2019-02-02T09:25:47.757Z,135.63
2019-02-02T09:28:16.205Z,139.85
2019-02-02T09:30:43.834Z,137.85
2019-02-02T09:33:11.289Z,133.10
2019-02-02T09:35:38.394Z,146.10
2019-02-02T09:38:05.449Z,142.98
2019-02-02T09:40:33.048Z,123.00
2019-02-02T09:43:00.713Z,135.75
2019-02-02T09:45:28.086Z,125.75
2019-02-02T09:47:55.233Z,142.70
2019-02-02T09:50:22.969Z,137.62
2019-02-02T09:52:50.050Z,142.30
2019-02-02T09:55:18.629Z,136.82
2019-02-02T09:57:47.825Z,137.72
2019-02-02T10:00:18.002Z,138.35
2019-02-02T10:02:45.966Z,131.63
2019-02-02T10:05:13.286Z,130.63
2019-02-02T10:07:42.174Z,133.90
2019-02-02T10:10:15.921Z,127.70
2019-02-02T10:12:44.210Z,154.42
2019-02-02T10:15:11.455Z,132.90
2019-02-02T10:17:40.330Z,140.37
2019-02-02T10:20:09.641Z,135.93
2019-02-02T10:22:37.118Z,122.22
2019-02-02T10:25:09.153Z,130.47
2019-02-02T10:27:36.612Z,121.43
2019-02-02T10:30:08.069Z,115.20
2019-02-02T10:32:35.819Z,112.17
2019-02-02T10:35:05.098Z,116.87
2019-02-02T10:37:32.234Z,129.90
2019-02-02T10:40:00.709Z,113.37
2019-02-02T10:42:27.750Z,115.23
2019-02-02T10:44:55.234Z,109.00
2019-02-02T10:47:24.100Z,113.93
2019-02-02T10:49:52.268Z,118.53
2019-02-02T10:52:19.604Z,112.93
2019-02-02T10:54:46.649Z,113.87
2019-02-02T10:57:13.701Z,122.47
2019-02-02T10:59:41.620Z,112.67
2019-02-02T11:02:09.330Z,113.03
2019-02-02T11:04:36.873Z,123.15
2019-02-02T11:07:05.117Z,118.37
2019-02-02T11:09:33.954Z,112.27
2019-02-02T11:12:01.302Z,107.53
2019-02-02T11:14:28.759Z,110.37
2019-02-02T11:16:56.436Z,120.75
2019-02-02T11:19:24.539Z,118.75
2019-02-02T11:21:52.348Z,119.10
2019-02-02T11:24:19.747Z,120.62
2019-02-02T11:26:47.526Z,123.45
2019-02-02T11:29:15.406Z,129.10
2019-02-02T11:31:42.905Z,117.20
2019-02-02T11:34:10.589Z,113.52
2019-02-02T11:36:37.896Z,133.35
2019-02-02T11:39:05.673Z,104.70
2019-02-02T11:41:34.887Z,118.70
2019-02-02T11:44:02.242Z,112.47
2019-02-02T11:46:29.903Z,106.95
2019-02-02T11:48:57.359Z,110.60
2019-02-02T11:51:24.441Z,110.50
2019-02-02T11:53:51.862Z,128.73
2019-02-02T11:56:19.558Z,136.10
2019-02-02T11:58:47.291Z,118.80
2019-02-02T12:01:16.835Z,108.63
2019-02-02T12:03:44.187Z,122.98
2019-02-02T12:06:11.446Z,123.40
2019-02-02T12:08:39.266Z,119.05
2019-02-02T12:11:06.346Z,129.90
2019-02-02T12:13:34.798Z,121.15
2019-02-02T12:16:01.915Z,115.85
2019-02-02T12:18:30.735Z,115.75
2019-02-02T12:20:57.793Z,112.37
2019-02-02T12:23:25.545Z,110.68
2019-02-02T12:25:53.514Z,106.05
2019-02-02T12:28:20.870Z,111.65
2019-02-02T12:30:48.328Z,116.22
2019-02-02T12:33:15.987Z,98.35
2019-02-02T12:35:44.263Z,101.53
2019-02-02T12:38:12.025Z,111.12
2019-02-02T12:40:39.074Z,105.67
2019-02-02T12:43:07.656Z,106.75
2019-02-02T12:45:46.582Z,100.53
2019-02-02T12:48:13.633Z,96.35
2019-02-02T12:50:40.974Z,80.57
2019-02-02T12:53:09.167Z,106.25
2019-02-02T12:55:39.921Z,98.07
2019-02-02T12:58:07.764Z,105.85
2019-02-02T13:00:34.926Z,99.20
2019-02-02T13:03:03.986Z,121.87
2019-02-02T13:05:31.063Z,105.85
2019-02-02T13:08:00.233Z,103.62
2019-02-02T13:10:27.309Z,106.58
2019-02-02T13:12:56.178Z,98.03
2019-02-02T13:15:23.370Z,100.95
2019-02-02T13:17:52.993Z,93.12
2019-02-02T13:20:20.444Z,96.92
2019-02-02T13:22:47.745Z,93.05
2019-02-02T13:25:16.640Z,98.35
2019-02-02T13:27:44.043Z,100.97
2019-02-02T13:30:18.159Z,105.25
2019-02-02T13:32:49.749Z,106.05
2019-02-02T13:35:16.395Z,95.87
2019-02-02T13:37:43.443Z,119.77
2019-02-02T13:40:13.769Z,114.17
2019-02-02T13:42:40.810Z,112.42
2019-02-02T13:45:09.916Z,106.03
2019-02-02T13:47:37.680Z,106.67
2019-02-02T13:50:07.558Z,106.70
2019-02-02T13:52:35.052Z,102.00
2019-02-02T13:55:02.138Z,111.83
2019-02-02T13:57:29.971Z,108.90
2019-02-02T13:59:57.729Z,106.78
2019-02-02T14:02:26.929Z,114.52
2019-02-02T14:04:55.714Z,107.35
2019-02-02T14:07:23.374Z,115.72
2019-02-02T14:09:50.762Z,108.37
2019-02-02T14:12:18.129Z,102.75
2019-02-02T14:14:45.512Z,108.95
2019-02-02T14:17:14.635Z,114.92
2019-02-02T14:19:42.066Z,106.52
2019-02-02T14:22:09.755Z,105.03
2019-02-02T14:24:37.106Z,110.68
2019-02-02T14:27:04.462Z,103.58
2019-02-02T14:29:34.073Z,106.12
2019-02-02T14:32:01.531Z,106.07
2019-02-02T14:34:39.558Z,101.20
2019-02-02T14:36:58.999Z,103.38
2019-02-02T14:39:26.055Z,109.27
2019-02-02T14:41:54.219Z,103.78
2019-02-02T14:44:21.786Z,94.52
2019-02-02T14:46:50.057Z,100.62
2019-02-02T14:49:17.418Z,99.62
2019-02-02T14:51:44.770Z,99.65
2019-02-02T14:54:12.527Z,103.17
2019-02-02T14:56:47.654Z,100.70
2019-02-02T14:59:10.243Z,114.20
2019-02-02T15:01:37.735Z,100.92
2019-02-02T15:04:06.055Z,96.60
2019-02-02T15:06:33.430Z,111.20
2019-02-02T15:09:00.475Z,101.42
2019-02-02T15:11:29.439Z,112.55
2019-02-02T15:13:56.801Z,99.22
2019-02-02T15:16:24.145Z,122.67
2019-02-02T15:18:51.805Z,106.43
2019-02-02T15:21:19.112Z,113.32
2019-02-02T15:23:46.327Z,107.70
2019-02-02T15:26:13.714Z,100.55
2019-02-02T15:28:40.745Z,111.17
2019-02-02T15:31:07.821Z,98.17
2019-02-02T15:33:37.900Z,97.08
2019-02-02T15:36:04.244Z,96.65
2019-02-02T15:38:31.690Z,88.85
2019-02-02T15:40:59.534Z,101.75
2019-02-02T15:43:27.601Z,87.10
2019-02-02T15:45:54.969Z,97.27
2019-02-02T15:48:26.967Z,91.78
2019-02-02T15:50:54.790Z,100.60
2019-02-02T15:53:23.373Z,99.45
2019-02-02T15:55:51.148Z,97.08
2019-02-02T15:58:19.846Z,95.55
2019-02-02T16:00:47.173Z,96.82
2019-02-02T16:03:14.548Z,92.27
2019-02-02T16:05:41.887Z,90.70
2019-02-02T16:08:11.487Z,104.25
2019-02-02T16:10:41.717Z,97.40
2019-02-02T16:13:09.270Z,106.12
2019-02-02T16:15:36.706Z,101.67
2019-02-02T16:18:04.904Z,106.40
2019-02-02T16:20:34.404Z,98.67
2019-02-02T16:23:02.788Z,106.85
2019-02-02T16:25:30.188Z,100.18
2019-02-02T16:27:58.560Z,102.53
2019-02-02T16:30:26.466Z,110.22
2019-02-02T16:32:53.840Z,114.35
2019-02-02T16:35:21.820Z,119.37
2019-02-02T16:37:49.472Z,103.70
2019-02-02T16:40:21.372Z,112.83
2019-02-02T16:42:48.700Z,102.05
2019-02-02T16:45:17.455Z,124.42
2019-02-02T16:47:44.521Z,106.47
2019-02-02T16:50:14.022Z,115.92
2019-02-02T16:52:41.793Z,109.63
2019-02-02T16:55:10.415Z,107.32
2019-02-02T16:57:38.550Z,107.03
2019-02-02T17:00:08.665Z,106.87
2019-02-02T17:02:37.088Z,98.78
2019-02-02T17:05:05.731Z,125.22
2019-02-02T17:07:34.418Z,104.50
2019-02-02T17:10:01.814Z,111.35
2019-02-02T17:12:31.678Z,107.07
2019-02-02T17:14:59.090Z,112.30
2019-02-02T17:17:26.742Z,114.60
2019-02-02T17:19:55.898Z,102.02
2019-02-02T17:22:23.255Z,103.35
2019-02-02T17:24:51.230Z,108.15
2019-02-02T17:27:18.581Z,99.50
2019-02-02T17:29:45.645Z,116.77
2019-02-02T17:32:13.592Z,110.80
2019-02-02T17:34:44.158Z,114.22
2019-02-02T17:37:11.573Z,106.50
2019-02-02T17:39:39.450Z,107.72
2019-02-02T17:42:06.802Z,99.97
2019-02-02T17:44:34.252Z,97.90
2019-02-02T17:47:01.917Z,96.30
2019-02-02T17:49:29.901Z,97.85
2019-02-02T17:51:58.465Z,94.70
2019-02-02T17:54:26.539Z,88.05
2019-02-02T17:56:55.227Z,92.40
2019-02-02T17:59:23.340Z,84.35
2019-02-02T18:01:51.180Z,91.53
2019-02-02T18:04:19.612Z,80.62
2019-02-02T18:06:47.101Z,89.28
2019-02-02T18:09:14.211Z,94.67
2019-02-02T18:11:44.811Z,87.95
2019-02-02T18:14:12.335Z,105.30
2019-02-02T18:16:39.387Z,85.12
2019-02-02T18:19:08.027Z,73.57
2019-02-02T18:21:35.090Z,85.15
2019-02-02T18:24:02.163Z,76.92
2019-02-02T18:26:29.221Z,87.35
2019-02-02T18:28:57.394Z,70.05
2019-02-02T18:31:24.659Z,82.25
2019-02-02T18:33:52.111Z,93.90
2019-02-02T18:36:19.280Z,83.27
2019-02-02T18:38:46.717Z,82.12
2019-02-02T18:41:13.798Z,92.62
2019-02-02T18:43:42.323Z,99.40
2019-02-02T18:46:09.373Z,79.87
2019-02-02T18:48:37.980Z,81.10
2019-02-02T18:51:07.077Z,78.45
2019-02-02T18:53:34.479Z,76.55
2019-02-02T18:56:08.219Z,86.05
2019-02-02T18:58:36.395Z,81.55
2019-02-02T19:01:04.255Z,78.65
2019-02-02T19:03:34.071Z,92.42
2019-02-02T19:06:01.523Z,78.07
2019-02-02T19:08:29.391Z,74.60
2019-02-02T19:10:56.457Z,76.05
2019-02-02T19:13:23.906Z,74.92
2019-02-02T19:15:52.755Z,81.97
2019-02-02T19:18:19.822Z,78.67
2019-02-02T19:20:47.839Z,83.80
2019-02-02T19:23:24.642Z,67.53
2019-02-02T19:25:44.423Z,69.07
2019-02-02T19:28:11.490Z,68.57
2019-02-02T19:30:38.570Z,71.35
2019-02-02T19:33:05.620Z,67.75
2019-02-02T19:35:32.695Z,76.62
2019-02-02T19:38:00.100Z,74.70
2019-02-02T19:40:27.512Z,78.35
2019-02-02T19:42:54.938Z,76.47
2019-02-02T19:45:23.667Z,79.85
2019-02-02T19:47:51.568Z,76.05
2019-02-02T19:50:22.514Z,78.75
2019-02-02T19:52:51.494Z,93.03
2019-02-02T19:55:20.693Z,89.22
2019-02-02T19:57:47.819Z,92.78
2019-02-02T20:00:21.216Z,83.10
2019-02-02T20:02:48.364Z,93.40
2019-02-02T20:05:27.515Z,85.47
2019-02-02T20:07:44.428Z,85.77
2019-02-02T20:10:13.564Z,84.07
2019-02-02T20:12:43.964Z,77.12
2019-02-02T20:15:15.073Z,87.75
2019-02-02T20:17:45.442Z,77.70
2019-02-02T20:20:17.048Z,85.22
2019-02-02T20:22:44.274Z,77.70
2019-02-02T20:25:11.632Z,77.50
2019-02-02T20:27:38.768Z,78.52
2019-02-02T20:30:08.005Z,82.97
2019-02-02T20:32:36.056Z,85.62
2019-02-02T20:35:04.356Z,76.02
2019-02-02T20:37:31.428Z,78.20
2019-02-02T20:39:58.464Z,81.70
2019-02-02T20:42:25.482Z,68.47
2019-02-02T20:44:53.605Z,68.62
2019-02-02T20:47:20.628Z,55.75
2019-02-02T20:49:47.697Z,69.97
2019-02-02T20:52:15.217Z,64.40
2019-02-02T20:54:43.309Z,62.80
2019-02-02T20:57:10.391Z,68.47
2019-02-02T20:59:37.834Z,65.08
2019-02-02T21:02:05.903Z,71.40
2019-02-02T21:04:33.703Z,71.12
2019-02-02T21:07:01.342Z,77.37
2019-02-02T21:09:28.427Z,85.87
2019-02-02T21:11:57.280Z,68.17
2019-02-02T21:14:25.359Z,71.62
2019-02-02T21:16:53.754Z,78.95
2019-02-02T21:19:22.896Z,75.45
2019-02-02T21:21:50.008Z,82.55
2019-02-02T21:24:17.812Z,85.47
2019-02-02T21:26:46.494Z,75.92
2019-02-02T21:29:14.157Z,90.00
2019-02-02T21:31:41.319Z,77.37
2019-02-02T21:34:08.770Z,82.33
2019-02-02T21:36:35.845Z,72.47
2019-02-02T21:39:06.658Z,87.27
2019-02-02T21:41:36.003Z,77.90
2019-02-02T21:44:03.811Z,81.47
2019-02-02T21:46:31.391Z,82.53
2019-02-02T21:48:58.743Z,81.22
2019-02-02T21:51:27.089Z,83.40
2019-02-02T21:53:55.590Z,79.42
2019-02-02T21:56:23.391Z,82.62
2019-02-02T21:58:51.420Z,80.10
2019-02-02T22:01:24.242Z,72.20
2019-02-02T22:03:47.872Z,80.83
2019-02-02T22:06:15.916Z,68.33
2019-02-02T22:08:43.113Z,80.25
2019-02-02T22:11:10.507Z,77.58
2019-02-02T22:13:38.212Z,76.53
2019-02-02T22:16:06.284Z,67.97
2019-02-02T22:18:34.148Z,67.60
2019-02-02T22:21:01.807Z,89.50
2019-02-02T22:23:28.968Z,74.77
2019-02-02T22:25:57.028Z,68.67
2019-02-02T22:28:28.579Z,72.60
2019-02-02T22:30:56.244Z,72.37
2019-02-02T22:33:24.927Z,69.72
2019-02-02T22:35:52.914Z,71.65
2019-02-02T22:38:20.666Z,64.30
2019-02-02T22:40:47.828Z,70.52
2019-02-02T22:43:14.880Z,67.78
2019-02-02T22:45:41.948Z,80.05
2019-02-02T22:48:09.707Z,70.20
2019-02-02T22:50:37.119Z,60.83
2019-02-02T22:53:04.800Z,63.17
2019-02-02T22:55:31.864Z,62.55
2019-02-02T22:57:59.688Z,67.70
2019-02-02T23:00:54.711Z,62.65
2019-02-02T23:04:03.785Z,68.85
2019-02-02T23:07:07.224Z,62.75
2019-02-02T23:10:23.540Z,64.97
2019-02-02T23:13:30.930Z,66.80
2019-02-02T23:16:29.112Z,56.65
2019-02-02T23:18:57.577Z,78.00
2019-02-02T23:21:25.818Z,59.20
2019-02-02T23:23:52.847Z,64.75
2019-02-02T23:26:20.475Z,72.78
2019-02-02T23:28:47.566Z,67.47
2019-02-02T23:31:16.719Z,74.92
2019-02-02T23:33:44.384Z,86.30
2019-02-02T23:36:11.750Z,71.07
2019-02-02T23:38:39.498Z,73.35
2019-02-02T23:41:06.850Z,72.92
2019-02-02T23:43:34.510Z,82.42
2019-02-02T23:46:02.383Z,81.80
2019-02-02T23:48:30.272Z,70.85
2019-02-02T23:50:57.675Z,76.55
2019-02-02T23:53:24.731Z,74.80
2019-02-02T23:55:51.821Z,83.50
2019-02-02T23:58:20.383Z,86.17
